sensor_id;sensor_type;location;lat;lon;timestamp;pressure;altitude;pressure_sealevel;temperature;humidity
78843;BME280;70542;53.774;-0.352;2023-07-29T00:01:11;100280;;;22;39
78843;BME280;70542;53.774;-0.352;2023-07-29T00:06:54;100270;;;20;43
78843;BME280;70542;53.774;-0.352;2023-07-29T00:12:32;100260;;;22;38
78843;BME280;70542;53.774;-0.352;2023-07-29T00:18:11;100270;;;22;39
78843;BME280;70542;53.774;-0.352;2023-07-29T00:23:55;100280;;;23;38
78843;BME280;70542;53.774;-0.352;2023-07-29T00:29:33;100280;;;22;40
78843;BME280;70542;53.774;-0.352;2023-07-29T00:35:12;100280;;;22;39
78843;BME280;70542;53.774;-0.352;2023-07-29T00:40:51;100270;;;22;40
78843;BME280;70542;53.774;-0.352;2023-07-29T00:46:36;100270;;;22;40
78843;BME280;70542;53.774;-0.352;2023-07-29T00:52:16;100260;;;21;42
78843;BME280;70542;53.774;-0.352;2023-07-29T00:57:55;100260;;;20;43
78843;BME280;70542;53.774;-0.352;2023-07-29T01:03:35;100250;;;22;41
78843;BME280;70542;53.774;-0.352;2023-07-29T01:09:20;100250;;;22;41
78843;BME280;70542;53.774;-0.352;2023-07-29T01:15:07;100260;;;21;43
78843;BME280;70542;53.774;-0.352;2023-07-29T01:20:50;100250;;;21;42
78843;BME280;70542;53.774;-0.352;2023-07-29T01:26:31;100240;;;21;42
78843;BME280;70542;53.774;-0.352;2023-07-29T01:32:14;100250;;;20;45
78843;BME280;70542;53.774;-0.352;2023-07-29T01:38:09;100240;;;21;42
78843;BME280;70542;53.774;-0.352;2023-07-29T01:43:55;100250;;;21;43
78843;BME280;70542;53.774;-0.352;2023-07-29T01:49:35;100250;;;20;44
78843;BME280;70542;53.774;-0.352;2023-07-29T01:55:13;100240;;;20;44
78843;BME280;70542;53.774;-0.352;2023-07-29T02:00:57;100240;;;21;43
78843;BME280;70542;53.774;-0.352;2023-07-29T02:06:36;100240;;;20;45
78843;BME280;70542;53.774;-0.352;2023-07-29T02:12:14;100240;;;20;44
78843;BME280;70542;53.774;-0.352;2023-07-29T02:17:58;100230;;;20;44
78843;BME280;70542;53.774;-0.352;2023-07-29T02:23:41;100220;;;20;45
78843;BME280;70542;53.774;-0.352;2023-07-29T02:29:20;100220;;;20;44
78843;BME280;70542;53.774;-0.352;2023-07-29T02:34:59;100210;;;20;44
78843;BME280;70542;53.774;-0.352;2023-07-29T02:40:47;100220;;;20;44
78843;BME280;70542;53.774;-0.352;2023-07-29T02:46:26;100220;;;20;44
78843;BME280;70542;53.774;-0.352;2023-07-29T02:52:05;100220;;;20;43
78843;BME280;70542;53.774;-0.352;2023-07-29T02:57:44;100220;;;21;43
78843;BME280;70542;53.774;-0.352;2023-07-29T03:03:28;100220;;;19;44
78843;BME280;70542;53.774;-0.352;2023-07-29T03:09:07;100220;;;19;45
78843;BME280;70542;53.774;-0.352;2023-07-29T03:14:48;100220;;;20;43
78843;BME280;70542;53.774;-0.352;2023-07-29T03:20:36;100210;;;18;46
78843;BME280;70542;53.774;-0.352;2023-07-29T03:26:16;100210;;;20;43
78843;BME280;70542;53.774;-0.352;2023-07-29T03:31:55;100220;;;20;44
78843;BME280;70542;53.774;-0.352;2023-07-29T03:37:33;100210;;;18;47
78843;BME280;70542;53.774;-0.352;2023-07-29T03:43:12;100210;;;19;45
78843;BME280;70542;53.774;-0.352;2023-07-29T03:48:50;100210;;;18;48
78843;BME280;70542;53.774;-0.352;2023-07-29T03:54:29;100210;;;19;46
78843;BME280;70542;53.774;-0.352;2023-07-29T04:00:13;100210;;;20;44
78843;BME280;70542;53.774;-0.352;2023-07-29T04:05:58;100210;;;20;44
78843;BME280;70542;53.774;-0.352;2023-07-29T04:11:37;100210;;;20;44
78843;BME280;70542;53.774;-0.352;2023-07-29T04:17:16;100210;;;20;43
78843;BME280;70542;53.774;-0.352;2023-07-29T04:22:54;100210;;;19;44
78843;BME280;70542;53.774;-0.352;2023-07-29T04:28:33;100210;;;19;45
78843;BME280;70542;53.774;-0.352;2023-07-29T04:34:22;100200;;;19;44
78843;BME280;70542;53.774;-0.352;2023-07-29T04:40:00;100200;;;19;45
78843;BME280;70542;53.774;-0.352;2023-07-29T04:45:42;100200;;;19;45
78843;BME280;70542;53.774;-0.352;2023-07-29T04:51:29;100210;;;19;44
78843;BME280;70542;53.774;-0.352;2023-07-29T04:57:08;100210;;;19;45
78843;BME280;70542;53.774;-0.352;2023-07-29T05:02:46;100210;;;18;46
78843;BME280;70542;53.774;-0.352;2023-07-29T05:08:25;100210;;;19;44
78843;BME280;70542;53.774;-0.352;2023-07-29T05:14:04;100220;;;19;45
78843;BME280;70542;53.774;-0.352;2023-07-29T05:19:42;100220;;;20;43
78843;BME280;70542;53.774;-0.352;2023-07-29T05:25:21;100220;;;19;44
78843;BME280;70542;53.774;-0.352;2023-07-29T05:31:00;100220;;;19;44
78843;BME280;70542;53.774;-0.352;2023-07-29T05:36:49;100220;;;18;46
78843;BME280;70542;53.774;-0.352;2023-07-29T05:42:28;100220;;;16;49
78843;BME280;70542;53.774;-0.352;2023-07-29T05:48:12;100220;;;18;46
78843;BME280;70542;53.774;-0.352;2023-07-29T05:53:51;100230;;;16;50
78843;BME280;70542;53.774;-0.352;2023-07-29T05:59:34;100230;;;18;46
78843;BME280;70542;53.774;-0.352;2023-07-29T06:05:18;100230;;;18;47
78843;BME280;70542;53.774;-0.352;2023-07-29T06:11:02;100230;;;18;45
78843;BME280;70542;53.774;-0.352;2023-07-29T06:16:51;100240;;;18;44
78843;BME280;70542;53.774;-0.352;2023-07-29T06:22:34;100240;;;18;44
78843;BME280;70542;53.774;-0.352;2023-07-29T06:28:13;100250;;;18;44
78843;BME280;70542;53.774;-0.352;2023-07-29T06:33:52;100250;;;18;45
78843;BME280;70542;53.774;-0.352;2023-07-29T06:39:30;100250;;;18;44
78843;BME280;70542;53.774;-0.352;2023-07-29T06:45:09;100240;;;18;44
78843;BME280;70542;53.774;-0.352;2023-07-29T06:50:49;100240;;;20;41
78843;BME280;70542;53.774;-0.352;2023-07-29T06:56:27;100240;;;19;43
78843;BME280;70542;53.774;-0.352;2023-07-29T07:02:07;100240;;;20;42
78843;BME280;70542;53.774;-0.352;2023-07-29T07:07:45;100240;;;20;41
78843;BME280;70542;53.774;-0.352;2023-07-29T07:13:24;100240;;;18;43
78843;BME280;70542;53.774;-0.352;2023-07-29T07:19:03;100240;;;20;40
78843;BME280;70542;53.774;-0.352;2023-07-29T07:24:46;100250;;;19;41
78843;BME280;70542;53.774;-0.352;2023-07-29T07:30:25;100260;;;18;44
78843;BME280;70542;53.774;-0.352;2023-07-29T07:36:04;100250;;;20;40
78843;BME280;70542;53.774;-0.352;2023-07-29T07:41:43;100240;;;21;40
78843;BME280;70542;53.774;-0.352;2023-07-29T07:47:21;100240;;;19;41
78843;BME280;70542;53.774;-0.352;2023-07-29T07:53:00;100250;;;19;43
78843;BME280;70542;53.774;-0.352;2023-07-29T07:58:39;100250;;;20;40
78843;BME280;70542;53.774;-0.352;2023-07-29T08:04:17;100240;;;19;41
78843;BME280;70542;53.774;-0.352;2023-07-29T08:09:56;100240;;;19;43
78843;BME280;70542;53.774;-0.352;2023-07-29T08:15:35;100240;;;19;42
78843;BME280;70542;53.774;-0.352;2023-07-29T08:21:13;100240;;;20;39
78843;BME280;70542;53.774;-0.352;2023-07-29T08:26:52;100230;;;22;38
78843;BME280;70542;53.774;-0.352;2023-07-29T08:32:30;100230;;;21;38
78843;BME280;70542;53.774;-0.352;2023-07-29T08:38:09;100230;;;20;40
78843;BME280;70542;53.774;-0.352;2023-07-29T08:43:52;100240;;;19;43
78843;BME280;70542;53.774;-0.352;2023-07-29T08:49:31;100230;;;19;42
78843;BME280;70542;53.774;-0.352;2023-07-29T08:55:10;100230;;;19;42
78843;BME280;70542;53.774;-0.352;2023-07-29T09:00:49;100220;;;20;41
78843;BME280;70542;53.774;-0.352;2023-07-29T09:06:28;100220;;;20;41
78843;BME280;70542;53.774;-0.352;2023-07-29T09:12:08;100220;;;19;41
78843;BME280;70542;53.774;-0.352;2023-07-29T09:17:47;100220;;;19;41
78843;BME280;70542;53.774;-0.352;2023-07-29T09:23:26;100210;;;20;40
78843;BME280;70542;53.774;-0.352;2023-07-29T09:29:04;100210;;;20;38
78843;BME280;70542;53.774;-0.352;2023-07-29T09:34:43;100210;;;21;38
78843;BME280;70542;53.774;-0.352;2023-07-29T09:40:21;100220;;;21;36
78843;BME280;70542;53.774;-0.352;2023-07-29T09:46:01;100210;;;21;37
78843;BME280;70542;53.774;-0.352;2023-07-29T09:51:40;100240;;;18;45
78843;BME280;70542;53.774;-0.352;2023-07-29T09:57:19;100240;;;17;53
78843;BME280;70542;53.774;-0.352;2023-07-29T10:02:58;100240;;;17;50
78843;BME280;70542;53.774;-0.352;2023-07-29T10:08:43;100240;;;17;53
78843;BME280;70542;53.774;-0.352;2023-07-29T10:14:24;100240;;;18;50
78843;BME280;70542;53.774;-0.352;2023-07-29T10:20:08;100240;;;19;47
78843;BME280;70542;53.774;-0.352;2023-07-29T10:25:50;100230;;;20;44
78843;BME280;70542;53.774;-0.352;2023-07-29T10:31:33;100230;;;20;44
78843;BME280;70542;53.774;-0.352;2023-07-29T10:37:12;100230;;;19;44
78843;BME280;70542;53.774;-0.352;2023-07-29T10:43:00;100230;;;19;45
78843;BME280;70542;53.774;-0.352;2023-07-29T10:48:40;100230;;;19;45
78843;BME280;70542;53.774;-0.352;2023-07-29T10:54:19;100230;;;21;41
78843;BME280;70542;53.774;-0.352;2023-07-29T10:59:58;100240;;;20;42
78843;BME280;70542;53.774;-0.352;2023-07-29T11:05:46;100240;;;19;43
78843;BME280;70542;53.774;-0.352;2023-07-29T11:11:27;100230;;;19;43
78843;BME280;70542;53.774;-0.352;2023-07-29T11:17:05;100230;;;19;41
78843;BME280;70542;53.774;-0.352;2023-07-29T11:22:50;100220;;;21;37
78843;BME280;70542;53.774;-0.352;2023-07-29T11:28:29;100210;;;21;36
78843;BME280;70542;53.774;-0.352;2023-07-29T11:34:08;100200;;;21;34
78843;BME280;70542;53.774;-0.352;2023-07-29T11:39:47;100220;;;23;32
78843;BME280;70542;53.774;-0.352;2023-07-29T11:45:27;100220;;;22;31
78843;BME280;70542;53.774;-0.352;2023-07-29T11:51:07;100220;;;22;31
78843;BME280;70542;53.774;-0.352;2023-07-29T11:56:45;100220;;;20;34
78843;BME280;70542;53.774;-0.352;2023-07-29T12:02:25;100230;;;22;32
78843;BME280;70542;53.774;-0.352;2023-07-29T12:08:04;100230;;;22;31
78843;BME280;70542;53.774;-0.352;2023-07-29T12:13:44;100240;;;21;33
78843;BME280;70542;53.774;-0.352;2023-07-29T12:19:22;100240;;;20;36
78843;BME280;70542;53.774;-0.352;2023-07-29T12:25:01;100270;;;18;41
78843;BME280;70542;53.774;-0.352;2023-07-29T12:30:41;100270;;;19;40
78843;BME280;70542;53.774;-0.352;2023-07-29T12:36:20;100270;;;21;36
78843;BME280;70542;53.774;-0.352;2023-07-29T12:42:00;100270;;;20;37
78843;BME280;70542;53.774;-0.352;2023-07-29T12:47:44;100260;;;21;35
78843;BME280;70542;53.774;-0.352;2023-07-29T12:53:23;100260;;;21;33
78843;BME280;70542;53.774;-0.352;2023-07-29T12:59:04;100260;;;22;32
78843;BME280;70542;53.774;-0.352;2023-07-29T13:04:43;100260;;;22;32
78843;BME280;70542;53.774;-0.352;2023-07-29T13:10:21;100260;;;22;29
78843;BME280;70542;53.774;-0.352;2023-07-29T13:16:05;100260;;;23;29
78843;BME280;70542;53.774;-0.352;2023-07-29T13:21:44;100260;;;22;32
78843;BME280;70542;53.774;-0.352;2023-07-29T13:27:22;100260;;;23;30
78843;BME280;70542;53.774;-0.352;2023-07-29T13:33:01;100260;;;24;29
78843;BME280;70542;53.774;-0.352;2023-07-29T13:38:41;100250;;;22;33
78843;BME280;70542;53.774;-0.352;2023-07-29T13:44:20;100250;;;21;33
78843;BME280;70542;53.774;-0.352;2023-07-29T13:49:59;100260;;;23;30
78843;BME280;70542;53.774;-0.352;2023-07-29T13:55:37;100250;;;23;29
78843;BME280;70542;53.774;-0.352;2023-07-29T14:01:18;100250;;;21;32
78843;BME280;70542;53.774;-0.352;2023-07-29T14:06:56;100250;;;22;31
78843;BME280;70542;53.774;-0.352;2023-07-29T14:12:35;100250;;;22;30
78843;BME280;70542;53.774;-0.352;2023-07-29T14:18:14;100240;;;22;28
78843;BME280;70542;53.774;-0.352;2023-07-29T14:23:52;100250;;;22;29
78843;BME280;70542;53.774;-0.352;2023-07-29T14:29:31;100260;;;22;28
78843;BME280;70542;53.774;-0.352;2023-07-29T14:35:09;100250;;;21;31
78843;BME280;70542;53.774;-0.352;2023-07-29T14:40:48;100260;;;22;28
78843;BME280;70542;53.774;-0.352;2023-07-29T14:46:27;100260;;;21;30
78843;BME280;70542;53.774;-0.352;2023-07-29T14:52:06;100260;;;22;30
78843;BME280;70542;53.774;-0.352;2023-07-29T14:57:45;100260;;;22;29
78843;BME280;70542;53.774;-0.352;2023-07-29T15:03:24;100270;;;22;28
78843;BME280;70542;53.774;-0.352;2023-07-29T15:09:06;100270;;;21;27
78843;BME280;70542;53.774;-0.352;2023-07-29T15:14:50;100270;;;21;28
78843;BME280;70542;53.774;-0.352;2023-07-29T15:20:29;100270;;;21;28
78843;BME280;70542;53.774;-0.352;2023-07-29T15:26:07;100260;;;22;28
78843;BME280;70542;53.774;-0.352;2023-07-29T15:31:56;100270;;;22;28
78843;BME280;70542;53.774;-0.352;2023-07-29T15:37:35;100280;;;22;27
78843;BME280;70542;53.774;-0.352;2023-07-29T15:43:14;100270;;;22;27
78843;BME280;70542;53.774;-0.352;2023-07-29T15:48:52;100270;;;22;28
78843;BME280;70542;53.774;-0.352;2023-07-29T15:54:31;100270;;;22;29
78843;BME280;70542;53.774;-0.352;2023-07-29T16:00:11;100280;;;21;28
78843;BME280;70542;53.774;-0.352;2023-07-29T16:05:50;100270;;;21;29
78843;BME280;70542;53.774;-0.352;2023-07-29T16:11:29;100270;;;21;29
78843;BME280;70542;53.774;-0.352;2023-07-29T16:17:08;100280;;;21;28
78843;BME280;70542;53.774;-0.352;2023-07-29T16:22:52;100270;;;21;28
78843;BME280;70542;53.774;-0.352;2023-07-29T16:28:31;100280;;;22;28
78843;BME280;70542;53.774;-0.352;2023-07-29T16:34:10;100280;;;21;31
78843;BME280;70542;53.774;-0.352;2023-07-29T16:39:48;100280;;;21;30
78843;BME280;70542;53.774;-0.352;2023-07-29T16:45:27;100280;;;21;29
78843;BME280;70542;53.774;-0.352;2023-07-29T16:51:06;100280;;;21;30
78843;BME280;70542;53.774;-0.352;2023-07-29T16:56:46;100280;;;21;30
78843;BME280;70542;53.774;-0.352;2023-07-29T17:02:25;100280;;;22;30
78843;BME280;70542;53.774;-0.352;2023-07-29T17:08:04;100280;;;21;31
78843;BME280;70542;53.774;-0.352;2023-07-29T17:13:43;100280;;;22;30
78843;BME280;70542;53.774;-0.352;2023-07-29T17:19:22;100290;;;22;30
78843;BME280;70542;53.774;-0.352;2023-07-29T17:25:01;100290;;;22;30
78843;BME280;70542;53.774;-0.352;2023-07-29T17:30:40;100280;;;22;30
78843;BME280;70542;53.774;-0.352;2023-07-29T17:36:19;100290;;;23;29
78843;BME280;70542;53.774;-0.352;2023-07-29T17:41:57;100300;;;24;28
78843;BME280;70542;53.774;-0.352;2023-07-29T17:47:36;100290;;;25;26
78843;BME280;70542;53.774;-0.352;2023-07-29T17:53:15;100310;;;23;28
78843;BME280;70542;53.774;-0.352;2023-07-29T17:58:54;100310;;;22;29
78843;BME280;70542;53.774;-0.352;2023-07-29T18:04:32;100300;;;22;29
78843;BME280;70542;53.774;-0.352;2023-07-29T18:10:11;100310;;;22;29
78843;BME280;70542;53.774;-0.352;2023-07-29T18:15:50;100310;;;23;27
78843;BME280;70542;53.774;-0.352;2023-07-29T18:21:29;100320;;;22;29
78843;BME280;70542;53.774;-0.352;2023-07-29T18:27:08;100320;;;21;31
78843;BME280;70542;53.774;-0.352;2023-07-29T18:32:51;100340;;;23;28
78843;BME280;70542;53.774;-0.352;2023-07-29T18:38:35;100350;;;21;31
78843;BME280;70542;53.774;-0.352;2023-07-29T18:44:14;100340;;;21;31
78843;BME280;70542;53.774;-0.352;2023-07-29T18:49:59;100350;;;22;31
78843;BME280;70542;53.774;-0.352;2023-07-29T18:55:37;100350;;;20;33
78843;BME280;70542;53.774;-0.352;2023-07-29T19:01:16;100360;;;19;34
78843;BME280;70542;53.774;-0.352;2023-07-29T19:06:55;100360;;;19;34
78843;BME280;70542;53.774;-0.352;2023-07-29T19:12:34;100360;;;19;36
78843;BME280;70542;53.774;-0.352;2023-07-29T19:18:12;100350;;;20;33
78843;BME280;70542;53.774;-0.352;2023-07-29T19:23:51;100360;;;20;33
78843;BME280;70542;53.774;-0.352;2023-07-29T19:29:30;100360;;;19;35
78843;BME280;70542;53.774;-0.352;2023-07-29T19:35:25;100360;;;20;34
78843;BME280;70542;53.774;-0.352;2023-07-29T19:41:11;100360;;;21;33
78843;BME280;70542;53.774;-0.352;2023-07-29T19:46:55;100360;;;19;34
78843;BME280;70542;53.774;-0.352;2023-07-29T19:52:33;100370;;;19;34
78843;BME280;70542;53.774;-0.352;2023-07-29T19:58:12;100380;;;20;34
78843;BME280;70542;53.774;-0.352;2023-07-29T20:03:51;100370;;;21;32
78843;BME280;70542;53.774;-0.352;2023-07-29T20:09:29;100370;;;20;33
78843;BME280;70542;53.774;-0.352;2023-07-29T20:15:09;100380;;;20;33
78843;BME280;70542;53.774;-0.352;2023-07-29T20:20:48;100370;;;20;34
78843;BME280;70542;53.774;-0.352;2023-07-29T20:26:27;100380;;;19;34
78843;BME280;70542;53.774;-0.352;2023-07-29T20:32:06;100380;;;20;35
78843;BME280;70542;53.774;-0.352;2023-07-29T20:37:50;100380;;;20;34
78843;BME280;70542;53.774;-0.352;2023-07-29T20:43:29;100390;;;19;36
78843;BME280;70542;53.774;-0.352;2023-07-29T20:49:08;100390;;;20;33
78843;BME280;70542;53.774;-0.352;2023-07-29T20:54:46;100390;;;21;33
78843;BME280;70542;53.774;-0.352;2023-07-29T21:00:25;100400;;;19;35
78843;BME280;70542;53.774;-0.352;2023-07-29T21:06:04;100400;;;19;35
78843;BME280;70542;53.774;-0.352;2023-07-29T21:11:43;100400;;;19;35
78843;BME280;70542;53.774;-0.352;2023-07-29T21:17:22;100400;;;20;35
78843;BME280;70542;53.774;-0.352;2023-07-29T21:23:01;100400;;;20;34
78843;BME280;70542;53.774;-0.352;2023-07-29T21:28:40;100400;;;20;35
78843;BME280;70542;53.774;-0.352;2023-07-29T21:34:19;100410;;;20;34
78843;BME280;70542;53.774;-0.352;2023-07-29T21:40:04;100410;;;21;34
78843;BME280;70542;53.774;-0.352;2023-07-29T21:45:42;100410;;;20;35
78843;BME280;70542;53.774;-0.352;2023-07-29T21:51:21;100410;;;20;35
78843;BME280;70542;53.774;-0.352;2023-07-29T21:57:00;100410;;;20;36
78843;BME280;70542;53.774;-0.352;2023-07-29T22:02:39;100410;;;20;35
78843;BME280;70542;53.774;-0.352;2023-07-29T22:08:17;100420;;;20;37
78843;BME280;70542;53.774;-0.352;2023-07-29T22:13:56;100430;;;20;37
78843;BME280;70542;53.774;-0.352;2023-07-29T22:19:34;100430;;;20;37
78843;BME280;70542;53.774;-0.352;2023-07-29T22:25:14;100430;;;20;36
78843;BME280;70542;53.774;-0.352;2023-07-29T22:30:52;100430;;;19;38
78843;BME280;70542;53.774;-0.352;2023-07-29T22:36:31;100430;;;20;37
78843;BME280;70542;53.774;-0.352;2023-07-29T22:42:10;100430;;;19;39
78843;BME280;70542;53.774;-0.352;2023-07-29T22:47:49;100430;;;20;37
78843;BME280;70542;53.774;-0.352;2023-07-29T22:53:28;100430;;;18;40
78843;BME280;70542;53.774;-0.352;2023-07-29T23:04:54;100440;;;18;40
78843;BME280;70542;53.774;-0.352;2023-07-29T23:10:33;100440;;;19;39
78843;BME280;70542;53.774;-0.352;2023-07-29T23:16:12;100440;;;19;38
78843;BME280;70542;53.774;-0.352;2023-07-29T23:21:50;100450;;;18;39
78843;BME280;70542;53.774;-0.352;2023-07-29T23:27:29;100450;;;18;40
78843;BME280;70542;53.774;-0.352;2023-07-29T23:33:12;100450;;;18;40
78843;BME280;70542;53.774;-0.352;2023-07-29T23:38:51;100450;;;17;42
78843;BME280;70542;53.774;-0.352;2023-07-29T23:44:30;100450;;;17;41
78843;BME280;70542;53.774;-0.352;2023-07-29T23:50:10;100440;;;18;40
78843;BME280;70542;53.774;-0.352;2023-07-29T23:55:48;100440;;;18;40
